sensor_id;sensor_type;location;lat;lon;timestamp;temperature;humidity
21823;DHT22;11074;48.596;9.238;2023-12-20T00:01:35;5.00;99.90
21823;DHT22;11074;48.596;9.238;2023-12-20T00:04:02;5.10;99.90
21823;DHT22;11074;48.596;9.238;2023-12-20T00:06:29;5.10;99.90
21823;DHT22;11074;48.596;9.238;2023-12-20T00:08:55;5.10;99.90
21823;DHT22;11074;48.596;9.238;2023-12-20T00:11:20;5.10;99.90
21823;DHT22;11074;48.596;9.238;2023-12-20T00:13:46;5.10;99.90
21823;DHT22;11074;48.596;9.238;2023-12-20T00:16:12;5.10;99.90
21823;DHT22;11074;48.596;9.238;2023-12-20T00:18:37;5.10;99.90
21823;DHT22;11074;48.596;9.238;2023-12-20T00:21:03;5.20;99.90
21823;DHT22;11074;48.596;9.238;2023-12-20T00:23:29;5.20;99.90
21823;DHT22;11074;48.596;9.238;2023-12-20T00:25:55;5.20;99.90
21823;DHT22;11074;48.596;9.238;2023-12-20T00:28:21;5.20;99.90
21823;DHT22;11074;48.596;9.238;2023-12-20T00:30:46;5.20;99.90
21823;DHT22;11074;48.596;9.238;2023-12-20T00:33:12;5.20;99.90
21823;DHT22;11074;48.596;9.238;2023-12-20T00:35:38;5.20;99.90
21823;DHT22;11074;48.596;9.238;2023-12-20T00:38:03;5.20;99.90
21823;DHT22;11074;48.596;9.238;2023-12-20T00:40:30;5.20;99.90
21823;DHT22;11074;48.596;9.238;2023-12-20T00:42:56;5.20;99.90
21823;DHT22;11074;48.596;9.238;2023-12-20T00:45:21;5.20;99.90
21823;DHT22;11074;48.596;9.238;2023-12-20T00:47:47;5.20;99.90
21823;DHT22;11074;48.596;9.238;2023-12-20T00:50:13;5.20;99.90
21823;DHT22;11074;48.596;9.238;2023-12-20T00:52:38;5.20;99.90
21823;DHT22;11074;48.596;9.238;2023-12-20T00:55:04;5.20;99.90
21823;DHT22;11074;48.596;9.238;2023-12-20T00:57:30;5.20;99.90
21823;DHT22;11074;48.596;9.238;2023-12-20T00:59:56;5.20;99.90
21823;DHT22;11074;48.596;9.238;2023-12-20T01:02:22;5.20;99.90
21823;DHT22;11074;48.596;9.238;2023-12-20T01:04:48;5.20;99.90
21823;DHT22;11074;48.596;9.238;2023-12-20T01:07:13;5.20;99.90
21823;DHT22;11074;48.596;9.238;2023-12-20T01:09:39;5.20;99.90
21823;DHT22;11074;48.596;9.238;2023-12-20T01:12:05;5.10;99.90
21823;DHT22;11074;48.596;9.238;2023-12-20T01:14:30;5.10;99.90
21823;DHT22;11074;48.596;9.238;2023-12-20T01:16:56;5.20;99.90
21823;DHT22;11074;48.596;9.238;2023-12-20T01:19:22;5.30;99.90
21823;DHT22;11074;48.596;9.238;2023-12-20T01:21:49;5.30;99.90
21823;DHT22;11074;48.596;9.238;2023-12-20T01:24:14;5.40;99.90
21823;DHT22;11074;48.596;9.238;2023-12-20T01:26:40;5.40;99.90
21823;DHT22;11074;48.596;9.238;2023-12-20T01:29:06;5.40;99.90
21823;DHT22;11074;48.596;9.238;2023-12-20T01:31:31;5.30;99.90
21823;DHT22;11074;48.596;9.238;2023-12-20T01:33:57;5.40;99.90
21823;DHT22;11074;48.596;9.238;2023-12-20T01:36:23;5.40;99.90
21823;DHT22;11074;48.596;9.238;2023-12-20T01:38:48;5.40;99.90
21823;DHT22;11074;48.596;9.238;2023-12-20T01:41:14;5.30;99.90
21823;DHT22;11074;48.596;9.238;2023-12-20T01:43:40;5.30;99.90
21823;DHT22;11074;48.596;9.238;2023-12-20T01:46:06;5.30;99.90
21823;DHT22;11074;48.596;9.238;2023-12-20T01:48:32;5.30;99.90
21823;DHT22;11074;48.596;9.238;2023-12-20T01:50:59;5.30;99.90
21823;DHT22;11074;48.596;9.238;2023-12-20T01:53:27;5.30;99.90
21823;DHT22;11074;48.596;9.238;2023-12-20T01:55:55;5.30;99.90
21823;DHT22;11074;48.596;9.238;2023-12-20T01:58:23;5.30;99.90
21823;DHT22;11074;48.596;9.238;2023-12-20T02:00:50;5.30;99.90
21823;DHT22;11074;48.596;9.238;2023-12-20T02:03:16;5.30;99.90
21823;DHT22;11074;48.596;9.238;2023-12-20T02:05:44;5.30;99.90
21823;DHT22;11074;48.596;9.238;2023-12-20T02:08:12;5.30;99.90
21823;DHT22;11074;48.596;9.238;2023-12-20T02:10:37;5.30;99.90
21823;DHT22;11074;48.596;9.238;2023-12-20T02:13:04;5.40;99.90
21823;DHT22;11074;48.596;9.238;2023-12-20T02:15:30;5.30;99.90
21823;DHT22;11074;48.596;9.238;2023-12-20T02:17:56;5.30;99.90
21823;DHT22;11074;48.596;9.238;2023-12-20T02:20:21;5.30;99.90
21823;DHT22;11074;48.596;9.238;2023-12-20T02:22:47;5.20;99.90
21823;DHT22;11074;48.596;9.238;2023-12-20T02:25:13;5.30;99.90
21823;DHT22;11074;48.596;9.238;2023-12-20T02:27:39;5.20;99.90
21823;DHT22;11074;48.596;9.238;2023-12-20T02:30:05;5.30;99.90
21823;DHT22;11074;48.596;9.238;2023-12-20T02:32:31;5.20;99.90
21823;DHT22;11074;48.596;9.238;2023-12-20T02:34:57;5.20;99.90
21823;DHT22;11074;48.596;9.238;2023-12-20T02:37:23;5.20;99.90
21823;DHT22;11074;48.596;9.238;2023-12-20T02:39:49;5.20;99.90
21823;DHT22;11074;48.596;9.238;2023-12-20T02:42:15;5.20;99.90
21823;DHT22;11074;48.596;9.238;2023-12-20T02:44:41;5.20;99.90
21823;DHT22;11074;48.596;9.238;2023-12-20T02:47:06;5.20;99.90
21823;DHT22;11074;48.596;9.238;2023-12-20T02:49:32;5.10;99.90
21823;DHT22;11074;48.596;9.238;2023-12-20T02:51:57;5.10;99.90
21823;DHT22;11074;48.596;9.238;2023-12-20T02:54:23;5.10;99.90
21823;DHT22;11074;48.596;9.238;2023-12-20T02:56:49;5.10;99.90
21823;DHT22;11074;48.596;9.238;2023-12-20T02:59:15;5.10;99.90
21823;DHT22;11074;48.596;9.238;2023-12-20T03:01:45;5.10;99.90
21823;DHT22;11074;48.596;9.238;2023-12-20T03:04:14;5.10;99.90
21823;DHT22;11074;48.596;9.238;2023-12-20T03:06:40;5.10;99.90
21823;DHT22;11074;48.596;9.238;2023-12-20T03:09:05;5.10;99.90
21823;DHT22;11074;48.596;9.238;2023-12-20T03:11:31;5.20;99.90
21823;DHT22;11074;48.596;9.238;2023-12-20T03:13:57;5.10;99.90
21823;DHT22;11074;48.596;9.238;2023-12-20T03:16:23;5.10;99.90
21823;DHT22;11074;48.596;9.238;2023-12-20T03:18:49;5.10;99.90
21823;DHT22;11074;48.596;9.238;2023-12-20T03:21:15;5.20;99.90
21823;DHT22;11074;48.596;9.238;2023-12-20T03:23:41;5.10;99.90
21823;DHT22;11074;48.596;9.238;2023-12-20T03:26:07;5.20;99.90
21823;DHT22;11074;48.596;9.238;2023-12-20T03:28:33;5.10;99.90
21823;DHT22;11074;48.596;9.238;2023-12-20T03:30:59;5.10;99.90
21823;DHT22;11074;48.596;9.238;2023-12-20T03:33:25;5.10;99.90
21823;DHT22;11074;48.596;9.238;2023-12-20T03:35:50;5.20;99.90
21823;DHT22;11074;48.596;9.238;2023-12-20T03:38:16;5.20;99.90
21823;DHT22;11074;48.596;9.238;2023-12-20T03:40:42;5.20;99.90
21823;DHT22;11074;48.596;9.238;2023-12-20T03:43:07;5.20;99.90
21823;DHT22;11074;48.596;9.238;2023-12-20T03:45:33;5.20;99.90
21823;DHT22;11074;48.596;9.238;2023-12-20T03:47:59;5.20;99.90
21823;DHT22;11074;48.596;9.238;2023-12-20T03:50:25;5.30;99.90
21823;DHT22;11074;48.596;9.238;2023-12-20T03:52:51;5.20;99.90
21823;DHT22;11074;48.596;9.238;2023-12-20T03:55:16;5.20;99.90
21823;DHT22;11074;48.596;9.238;2023-12-20T03:57:42;5.20;99.90
21823;DHT22;11074;48.596;9.238;2023-12-20T04:00:08;5.20;99.90
21823;DHT22;11074;48.596;9.238;2023-12-20T04:02:40;5.20;99.90
21823;DHT22;11074;48.596;9.238;2023-12-20T04:05:07;5.20;99.90
21823;DHT22;11074;48.596;9.238;2023-12-20T04:07:33;5.20;99.90
21823;DHT22;11074;48.596;9.238;2023-12-20T04:10:00;5.20;99.90
21823;DHT22;11074;48.596;9.238;2023-12-20T04:12:26;5.20;99.90
21823;DHT22;11074;48.596;9.238;2023-12-20T04:14:52;5.20;99.90
21823;DHT22;11074;48.596;9.238;2023-12-20T04:17:18;5.20;99.90
21823;DHT22;11074;48.596;9.238;2023-12-20T04:19:43;5.20;99.90
21823;DHT22;11074;48.596;9.238;2023-12-20T04:22:09;5.20;99.90
21823;DHT22;11074;48.596;9.238;2023-12-20T04:24:34;5.20;99.90
21823;DHT22;11074;48.596;9.238;2023-12-20T04:27:00;5.20;99.90
21823;DHT22;11074;48.596;9.238;2023-12-20T04:29:26;5.20;99.90
21823;DHT22;11074;48.596;9.238;2023-12-20T04:31:52;5.20;99.90
21823;DHT22;11074;48.596;9.238;2023-12-20T04:34:17;5.20;99.90
21823;DHT22;11074;48.596;9.238;2023-12-20T04:36:43;5.20;99.90
21823;DHT22;11074;48.596;9.238;2023-12-20T04:39:09;5.20;99.90
21823;DHT22;11074;48.596;9.238;2023-12-20T04:41:35;5.20;99.90
21823;DHT22;11074;48.596;9.238;2023-12-20T04:44:01;5.20;99.90
21823;DHT22;11074;48.596;9.238;2023-12-20T04:46:26;5.20;99.90
21823;DHT22;11074;48.596;9.238;2023-12-20T04:48:52;5.20;99.90
21823;DHT22;11074;48.596;9.238;2023-12-20T04:51:18;5.20;99.90
21823;DHT22;11074;48.596;9.238;2023-12-20T04:53:43;5.20;99.90
21823;DHT22;11074;48.596;9.238;2023-12-20T04:56:09;5.20;99.90
21823;DHT22;11074;48.596;9.238;2023-12-20T04:58:34;5.20;99.90
21823;DHT22;11074;48.596;9.238;2023-12-20T05:01:00;5.20;99.90
21823;DHT22;11074;48.596;9.238;2023-12-20T05:03:26;5.30;99.90
21823;DHT22;11074;48.596;9.238;2023-12-20T05:05:51;5.20;99.90
21823;DHT22;11074;48.596;9.238;2023-12-20T05:08:17;5.20;99.90
21823;DHT22;11074;48.596;9.238;2023-12-20T05:10:42;5.20;99.90
21823;DHT22;11074;48.596;9.238;2023-12-20T05:13:08;5.30;99.90
21823;DHT22;11074;48.596;9.238;2023-12-20T05:15:34;5.20;99.90
21823;DHT22;11074;48.596;9.238;2023-12-20T05:17:59;5.20;99.90
21823;DHT22;11074;48.596;9.238;2023-12-20T05:20:25;5.20;99.90
21823;DHT22;11074;48.596;9.238;2023-12-20T05:22:50;5.20;99.90
21823;DHT22;11074;48.596;9.238;2023-12-20T05:25:16;5.20;99.90
21823;DHT22;11074;48.596;9.238;2023-12-20T05:27:42;5.20;99.90
21823;DHT22;11074;48.596;9.238;2023-12-20T05:30:07;5.20;99.90
21823;DHT22;11074;48.596;9.238;2023-12-20T05:32:33;5.20;99.90
21823;DHT22;11074;48.596;9.238;2023-12-20T05:34:59;5.20;99.90
21823;DHT22;11074;48.596;9.238;2023-12-20T05:37:24;5.20;99.90
21823;DHT22;11074;48.596;9.238;2023-12-20T05:39:50;5.30;99.90
21823;DHT22;11074;48.596;9.238;2023-12-20T05:42:16;5.30;99.90
21823;DHT22;11074;48.596;9.238;2023-12-20T05:44:42;5.20;99.90
21823;DHT22;11074;48.596;9.238;2023-12-20T05:47:07;5.20;99.90
21823;DHT22;11074;48.596;9.238;2023-12-20T05:49:33;5.20;99.90
21823;DHT22;11074;48.596;9.238;2023-12-20T05:51:58;5.30;99.90
21823;DHT22;11074;48.596;9.238;2023-12-20T05:54:24;5.20;99.90
21823;DHT22;11074;48.596;9.238;2023-12-20T05:56:49;5.20;99.90
21823;DHT22;11074;48.596;9.238;2023-12-20T05:59:16;5.30;99.90
21823;DHT22;11074;48.596;9.238;2023-12-20T06:01:41;5.20;99.90
21823;DHT22;11074;48.596;9.238;2023-12-20T06:04:07;5.30;99.90
21823;DHT22;11074;48.596;9.238;2023-12-20T06:06:32;5.20;99.90
21823;DHT22;11074;48.596;9.238;2023-12-20T06:08:58;5.20;99.90
21823;DHT22;11074;48.596;9.238;2023-12-20T06:11:24;5.30;99.90
21823;DHT22;11074;48.596;9.238;2023-12-20T06:13:49;5.30;99.90
21823;DHT22;11074;48.596;9.238;2023-12-20T06:16:18;5.20;99.90
21823;DHT22;11074;48.596;9.238;2023-12-20T06:18:43;5.30;99.90
21823;DHT22;11074;48.596;9.238;2023-12-20T06:21:09;5.30;99.90
21823;DHT22;11074;48.596;9.238;2023-12-20T06:23:38;5.30;99.90
21823;DHT22;11074;48.596;9.238;2023-12-20T06:26:04;5.30;99.90
21823;DHT22;11074;48.596;9.238;2023-12-20T06:28:29;5.20;99.90
21823;DHT22;11074;48.596;9.238;2023-12-20T06:30:55;5.20;99.90
21823;DHT22;11074;48.596;9.238;2023-12-20T06:33:22;5.20;99.90
21823;DHT22;11074;48.596;9.238;2023-12-20T06:35:48;5.20;99.90
21823;DHT22;11074;48.596;9.238;2023-12-20T06:38:14;5.20;99.90
21823;DHT22;11074;48.596;9.238;2023-12-20T06:40:39;5.20;99.90
21823;DHT22;11074;48.596;9.238;2023-12-20T06:43:05;5.20;99.90
21823;DHT22;11074;48.596;9.238;2023-12-20T06:45:32;5.20;99.90
21823;DHT22;11074;48.596;9.238;2023-12-20T06:47:57;5.20;99.90
21823;DHT22;11074;48.596;9.238;2023-12-20T06:50:23;5.20;99.90
21823;DHT22;11074;48.596;9.238;2023-12-20T06:52:49;5.20;99.90
21823;DHT22;11074;48.596;9.238;2023-12-20T06:55:15;5.20;99.90
21823;DHT22;11074;48.596;9.238;2023-12-20T06:57:40;5.20;99.90
21823;DHT22;11074;48.596;9.238;2023-12-20T07:00:06;5.10;99.90
21823;DHT22;11074;48.596;9.238;2023-12-20T07:02:33;5.20;99.90
21823;DHT22;11074;48.596;9.238;2023-12-20T07:04:59;5.10;99.90
21823;DHT22;11074;48.596;9.238;2023-12-20T07:07:25;5.20;99.90
21823;DHT22;11074;48.596;9.238;2023-12-20T07:09:51;5.20;99.90
21823;DHT22;11074;48.596;9.238;2023-12-20T07:12:17;5.10;99.90
21823;DHT22;11074;48.596;9.238;2023-12-20T07:14:45;5.20;99.90
21823;DHT22;11074;48.596;9.238;2023-12-20T07:17:11;5.10;99.90
21823;DHT22;11074;48.596;9.238;2023-12-20T07:19:37;5.20;99.90
21823;DHT22;11074;48.596;9.238;2023-12-20T07:22:03;5.20;99.90
21823;DHT22;11074;48.596;9.238;2023-12-20T07:24:29;5.20;99.90
21823;DHT22;11074;48.596;9.238;2023-12-20T07:26:55;5.20;99.90
21823;DHT22;11074;48.596;9.238;2023-12-20T07:29:20;5.20;99.90
21823;DHT22;11074;48.596;9.238;2023-12-20T07:31:46;5.20;99.90
21823;DHT22;11074;48.596;9.238;2023-12-20T07:34:12;5.20;99.90
21823;DHT22;11074;48.596;9.238;2023-12-20T07:36:37;5.20;99.90
21823;DHT22;11074;48.596;9.238;2023-12-20T07:39:03;5.20;99.90
21823;DHT22;11074;48.596;9.238;2023-12-20T07:41:28;5.20;99.90
21823;DHT22;11074;48.596;9.238;2023-12-20T07:43:54;5.30;99.90
21823;DHT22;11074;48.596;9.238;2023-12-20T07:46:21;5.30;99.90
21823;DHT22;11074;48.596;9.238;2023-12-20T07:48:49;5.20;99.90
21823;DHT22;11074;48.596;9.238;2023-12-20T07:51:14;5.30;99.90
21823;DHT22;11074;48.596;9.238;2023-12-20T07:53:40;5.30;99.90
21823;DHT22;11074;48.596;9.238;2023-12-20T07:56:18;5.30;99.90
21823;DHT22;11074;48.596;9.238;2023-12-20T07:58:45;5.30;99.90
21823;DHT22;11074;48.596;9.238;2023-12-20T08:01:11;5.30;99.90
21823;DHT22;11074;48.596;9.238;2023-12-20T08:03:37;5.30;99.90
21823;DHT22;11074;48.596;9.238;2023-12-20T08:06:03;5.40;99.90
21823;DHT22;11074;48.596;9.238;2023-12-20T08:08:29;5.40;99.90
21823;DHT22;11074;48.596;9.238;2023-12-20T08:10:54;5.40;99.90
21823;DHT22;11074;48.596;9.238;2023-12-20T08:13:20;5.40;99.90
21823;DHT22;11074;48.596;9.238;2023-12-20T08:15:51;5.40;99.90
21823;DHT22;11074;48.596;9.238;2023-12-20T08:18:17;5.40;99.90
21823;DHT22;11074;48.596;9.238;2023-12-20T08:20:43;5.40;99.90
21823;DHT22;11074;48.596;9.238;2023-12-20T08:23:08;5.40;99.90
21823;DHT22;11074;48.596;9.238;2023-12-20T08:25:34;5.40;99.90
21823;DHT22;11074;48.596;9.238;2023-12-20T08:27:59;5.40;99.90
21823;DHT22;11074;48.596;9.238;2023-12-20T08:30:26;5.50;99.90
21823;DHT22;11074;48.596;9.238;2023-12-20T08:32:51;5.50;99.90
21823;DHT22;11074;48.596;9.238;2023-12-20T08:35:17;5.50;99.90
21823;DHT22;11074;48.596;9.238;2023-12-20T08:37:43;5.50;99.90
21823;DHT22;11074;48.596;9.238;2023-12-20T08:40:09;5.50;99.90
21823;DHT22;11074;48.596;9.238;2023-12-20T08:42:35;5.50;99.90
21823;DHT22;11074;48.596;9.238;2023-12-20T08:45:01;5.50;99.90
21823;DHT22;11074;48.596;9.238;2023-12-20T08:47:26;5.50;99.90
21823;DHT22;11074;48.596;9.238;2023-12-20T08:49:52;5.60;99.90
21823;DHT22;11074;48.596;9.238;2023-12-20T08:52:22;5.60;99.90
21823;DHT22;11074;48.596;9.238;2023-12-20T08:54:49;5.60;99.90
21823;DHT22;11074;48.596;9.238;2023-12-20T08:57:18;5.60;99.90
21823;DHT22;11074;48.596;9.238;2023-12-20T08:59:45;5.60;99.90
21823;DHT22;11074;48.596;9.238;2023-12-20T09:02:12;5.60;99.90
21823;DHT22;11074;48.596;9.238;2023-12-20T09:04:37;5.60;99.90
21823;DHT22;11074;48.596;9.238;2023-12-20T09:07:03;5.60;99.90
21823;DHT22;11074;48.596;9.238;2023-12-20T09:09:29;5.70;99.90
21823;DHT22;11074;48.596;9.238;2023-12-20T09:11:54;5.70;99.90
21823;DHT22;11074;48.596;9.238;2023-12-20T09:14:20;5.70;99.90
21823;DHT22;11074;48.596;9.238;2023-12-20T09:16:45;5.70;99.90
21823;DHT22;11074;48.596;9.238;2023-12-20T09:19:11;5.70;99.90
21823;DHT22;11074;48.596;9.238;2023-12-20T09:21:36;5.70;99.90
21823;DHT22;11074;48.596;9.238;2023-12-20T09:24:02;5.70;99.90
21823;DHT22;11074;48.596;9.238;2023-12-20T09:26:28;5.70;99.90
21823;DHT22;11074;48.596;9.238;2023-12-20T09:28:53;5.70;99.90
21823;DHT22;11074;48.596;9.238;2023-12-20T09:31:19;5.80;99.90
21823;DHT22;11074;48.596;9.238;2023-12-20T09:33:44;5.80;99.90
21823;DHT22;11074;48.596;9.238;2023-12-20T09:36:10;5.80;99.90
21823;DHT22;11074;48.596;9.238;2023-12-20T09:38:36;5.80;99.90
21823;DHT22;11074;48.596;9.238;2023-12-20T09:41:01;5.90;99.90
21823;DHT22;11074;48.596;9.238;2023-12-20T09:43:29;5.90;99.90
21823;DHT22;11074;48.596;9.238;2023-12-20T09:45:56;5.90;99.90
21823;DHT22;11074;48.596;9.238;2023-12-20T09:48:25;6.00;99.90
21823;DHT22;11074;48.596;9.238;2023-12-20T09:50:51;6.00;99.90
21823;DHT22;11074;48.596;9.238;2023-12-20T09:53:17;6.00;99.90
21823;DHT22;11074;48.596;9.238;2023-12-20T09:55:44;5.90;99.90
21823;DHT22;11074;48.596;9.238;2023-12-20T09:58:10;6.00;99.90
21823;DHT22;11074;48.596;9.238;2023-12-20T10:00:35;6.00;99.90
21823;DHT22;11074;48.596;9.238;2023-12-20T10:03:01;6.00;99.90
21823;DHT22;11074;48.596;9.238;2023-12-20T10:05:28;6.00;99.90
21823;DHT22;11074;48.596;9.238;2023-12-20T10:07:57;6.10;99.90
21823;DHT22;11074;48.596;9.238;2023-12-20T10:10:24;6.10;99.90
21823;DHT22;11074;48.596;9.238;2023-12-20T10:13:02;6.10;99.90
21823;DHT22;11074;48.596;9.238;2023-12-20T10:15:32;6.10;99.90
21823;DHT22;11074;48.596;9.238;2023-12-20T10:17:58;6.10;99.90
21823;DHT22;11074;48.596;9.238;2023-12-20T10:20:24;6.10;99.90
21823;DHT22;11074;48.596;9.238;2023-12-20T10:22:51;6.10;99.90
21823;DHT22;11074;48.596;9.238;2023-12-20T10:25:19;6.10;99.90
21823;DHT22;11074;48.596;9.238;2023-12-20T10:27:46;6.10;99.90
21823;DHT22;11074;48.596;9.238;2023-12-20T10:30:12;6.10;99.90
21823;DHT22;11074;48.596;9.238;2023-12-20T10:32:38;6.10;99.90
21823;DHT22;11074;48.596;9.238;2023-12-20T10:35:04;6.10;99.90
21823;DHT22;11074;48.596;9.238;2023-12-20T10:37:30;6.20;99.90
21823;DHT22;11074;48.596;9.238;2023-12-20T10:39:55;6.20;99.90
21823;DHT22;11074;48.596;9.238;2023-12-20T10:42:27;6.20;99.90
21823;DHT22;11074;48.596;9.238;2023-12-20T10:44:53;6.20;99.90
21823;DHT22;11074;48.596;9.238;2023-12-20T10:47:19;6.20;99.90
21823;DHT22;11074;48.596;9.238;2023-12-20T10:49:46;6.30;99.90
21823;DHT22;11074;48.596;9.238;2023-12-20T10:52:12;6.20;99.90
21823;DHT22;11074;48.596;9.238;2023-12-20T10:54:39;6.20;99.90
21823;DHT22;11074;48.596;9.238;2023-12-20T10:57:06;6.20;99.90
21823;DHT22;11074;48.596;9.238;2023-12-20T10:59:38;6.20;99.90
21823;DHT22;11074;48.596;9.238;2023-12-20T11:02:04;6.30;99.90
21823;DHT22;11074;48.596;9.238;2023-12-20T11:07:35;6.30;99.90
21823;DHT22;11074;48.596;9.238;2023-12-20T11:10:16;6.30;99.90
21823;DHT22;11074;48.596;9.238;2023-12-20T11:12:55;6.30;99.90
21823;DHT22;11074;48.596;9.238;2023-12-20T11:15:27;6.40;99.90
21823;DHT22;11074;48.596;9.238;2023-12-20T11:17:57;6.40;99.90
21823;DHT22;11074;48.596;9.238;2023-12-20T11:20:24;6.40;99.90
21823;DHT22;11074;48.596;9.238;2023-12-20T11:23:00;6.50;99.90
21823;DHT22;11074;48.596;9.238;2023-12-20T11:25:26;6.60;99.90
21823;DHT22;11074;48.596;9.238;2023-12-20T11:28:06;6.70;99.90
21823;DHT22;11074;48.596;9.238;2023-12-20T11:30:42;6.70;99.90
21823;DHT22;11074;48.596;9.238;2023-12-20T11:33:12;6.80;99.90
21823;DHT22;11074;48.596;9.238;2023-12-20T11:35:39;6.80;99.90
21823;DHT22;11074;48.596;9.238;2023-12-20T11:38:07;6.80;99.90
21823;DHT22;11074;48.596;9.238;2023-12-20T11:40:33;6.80;99.90
21823;DHT22;11074;48.596;9.238;2023-12-20T11:43:00;6.80;99.90
21823;DHT22;11074;48.596;9.238;2023-12-20T11:45:25;6.80;99.90
21823;DHT22;11074;48.596;9.238;2023-12-20T11:47:52;6.80;99.90
21823;DHT22;11074;48.596;9.238;2023-12-20T11:50:21;6.80;99.90
21823;DHT22;11074;48.596;9.238;2023-12-20T11:52:48;6.80;99.90
21823;DHT22;11074;48.596;9.238;2023-12-20T11:55:14;6.80;99.90
21823;DHT22;11074;48.596;9.238;2023-12-20T11:57:40;6.70;99.90
21823;DHT22;11074;48.596;9.238;2023-12-20T12:00:07;6.70;99.90
21823;DHT22;11074;48.596;9.238;2023-12-20T12:02:33;6.70;99.90
21823;DHT22;11074;48.596;9.238;2023-12-20T12:04:59;6.60;99.90
21823;DHT22;11074;48.596;9.238;2023-12-20T12:07:25;6.60;99.90
21823;DHT22;11074;48.596;9.238;2023-12-20T12:09:51;6.60;99.90
21823;DHT22;11074;48.596;9.238;2023-12-20T12:12:17;6.50;99.90
21823;DHT22;11074;48.596;9.238;2023-12-20T12:14:44;6.50;99.90
21823;DHT22;11074;48.596;9.238;2023-12-20T12:17:11;6.60;99.90
21823;DHT22;11074;48.596;9.238;2023-12-20T12:19:38;6.60;99.90
21823;DHT22;11074;48.596;9.238;2023-12-20T12:24:42;6.60;99.90
21823;DHT22;11074;48.596;9.238;2023-12-20T12:27:09;6.60;99.90
21823;DHT22;11074;48.596;9.238;2023-12-20T12:29:36;6.50;99.90
21823;DHT22;11074;48.596;9.238;2023-12-20T12:32:09;6.50;99.90
21823;DHT22;11074;48.596;9.238;2023-12-20T12:34:38;6.50;99.90
21823;DHT22;11074;48.596;9.238;2023-12-20T12:37:05;6.40;99.90
21823;DHT22;11074;48.596;9.238;2023-12-20T12:39:30;6.40;99.90
21823;DHT22;11074;48.596;9.238;2023-12-20T12:41:56;6.30;99.90
21823;DHT22;11074;48.596;9.238;2023-12-20T12:44:24;6.30;99.90
21823;DHT22;11074;48.596;9.238;2023-12-20T12:46:50;6.30;99.90
21823;DHT22;11074;48.596;9.238;2023-12-20T12:49:18;6.30;99.90
21823;DHT22;11074;48.596;9.238;2023-12-20T12:51:45;6.20;99.90
21823;DHT22;11074;48.596;9.238;2023-12-20T12:54:10;6.30;99.90
21823;DHT22;11074;48.596;9.238;2023-12-20T12:56:38;6.20;99.90
21823;DHT22;11074;48.596;9.238;2023-12-20T12:59:04;6.20;99.90
21823;DHT22;11074;48.596;9.238;2023-12-20T13:01:31;6.20;99.90
21823;DHT22;11074;48.596;9.238;2023-12-20T13:03:57;6.20;99.90
21823;DHT22;11074;48.596;9.238;2023-12-20T13:06:22;6.20;99.90
21823;DHT22;11074;48.596;9.238;2023-12-20T13:08:48;6.20;99.90
21823;DHT22;11074;48.596;9.238;2023-12-20T13:11:14;6.20;99.90
21823;DHT22;11074;48.596;9.238;2023-12-20T13:13:40;6.20;99.90
21823;DHT22;11074;48.596;9.238;2023-12-20T13:16:06;6.20;99.90
21823;DHT22;11074;48.596;9.238;2023-12-20T13:18:31;6.20;99.90
21823;DHT22;11074;48.596;9.238;2023-12-20T13:20:57;6.30;99.90
21823;DHT22;11074;48.596;9.238;2023-12-20T13:23:23;6.30;99.90
21823;DHT22;11074;48.596;9.238;2023-12-20T13:25:48;6.30;99.90
21823;DHT22;11074;48.596;9.238;2023-12-20T13:28:14;6.30;99.90
21823;DHT22;11074;48.596;9.238;2023-12-20T13:30:40;6.30;99.90
21823;DHT22;11074;48.596;9.238;2023-12-20T13:33:06;6.30;99.90
21823;DHT22;11074;48.596;9.238;2023-12-20T13:35:32;6.30;99.90
21823;DHT22;11074;48.596;9.238;2023-12-20T13:38:03;6.30;99.90
21823;DHT22;11074;48.596;9.238;2023-12-20T13:40:33;6.40;99.90
21823;DHT22;11074;48.596;9.238;2023-12-20T13:42:58;6.40;99.90
21823;DHT22;11074;48.596;9.238;2023-12-20T13:45:24;6.40;99.90
21823;DHT22;11074;48.596;9.238;2023-12-20T13:47:50;6.50;99.90
21823;DHT22;11074;48.596;9.238;2023-12-20T13:50:16;6.50;99.90
21823;DHT22;11074;48.596;9.238;2023-12-20T13:52:41;6.50;99.90
21823;DHT22;11074;48.596;9.238;2023-12-20T13:55:07;6.50;99.90
21823;DHT22;11074;48.596;9.238;2023-12-20T13:57:34;6.40;99.90
21823;DHT22;11074;48.596;9.238;2023-12-20T14:00:03;6.40;99.90
21823;DHT22;11074;48.596;9.238;2023-12-20T14:02:30;6.40;99.90
21823;DHT22;11074;48.596;9.238;2023-12-20T14:04:55;6.40;99.90
21823;DHT22;11074;48.596;9.238;2023-12-20T14:07:21;6.40;99.90
21823;DHT22;11074;48.596;9.238;2023-12-20T14:09:46;6.40;99.90
21823;DHT22;11074;48.596;9.238;2023-12-20T14:12:12;6.40;99.90
21823;DHT22;11074;48.596;9.238;2023-12-20T14:14:38;6.40;99.90
21823;DHT22;11074;48.596;9.238;2023-12-20T14:17:04;6.40;99.90
21823;DHT22;11074;48.596;9.238;2023-12-20T14:19:31;6.40;99.90
21823;DHT22;11074;48.596;9.238;2023-12-20T14:21:57;6.30;99.90
21823;DHT22;11074;48.596;9.238;2023-12-20T14:24:26;6.30;99.90
21823;DHT22;11074;48.596;9.238;2023-12-20T14:26:52;6.30;99.90
21823;DHT22;11074;48.596;9.238;2023-12-20T14:29:18;6.30;99.90
21823;DHT22;11074;48.596;9.238;2023-12-20T14:31:43;6.30;99.90
21823;DHT22;11074;48.596;9.238;2023-12-20T14:34:09;6.30;99.90
21823;DHT22;11074;48.596;9.238;2023-12-20T14:36:35;6.30;99.90
21823;DHT22;11074;48.596;9.238;2023-12-20T14:39:00;6.30;99.90
21823;DHT22;11074;48.596;9.238;2023-12-20T14:41:28;6.30;99.90
21823;DHT22;11074;48.596;9.238;2023-12-20T14:43:54;6.20;99.90
21823;DHT22;11074;48.596;9.238;2023-12-20T14:46:20;6.20;99.90
21823;DHT22;11074;48.596;9.238;2023-12-20T14:48:46;6.20;99.90
21823;DHT22;11074;48.596;9.238;2023-12-20T14:51:13;6.20;99.90
21823;DHT22;11074;48.596;9.238;2023-12-20T14:53:39;6.20;99.90
21823;DHT22;11074;48.596;9.238;2023-12-20T14:56:05;6.20;99.90
21823;DHT22;11074;48.596;9.238;2023-12-20T14:58:31;6.10;99.90
21823;DHT22;11074;48.596;9.238;2023-12-20T15:00:57;6.10;99.90
21823;DHT22;11074;48.596;9.238;2023-12-20T15:03:23;6.10;99.90
21823;DHT22;11074;48.596;9.238;2023-12-20T15:05:49;6.10;99.90
21823;DHT22;11074;48.596;9.238;2023-12-20T15:08:15;6.00;99.90
21823;DHT22;11074;48.596;9.238;2023-12-20T15:10:41;6.00;99.90
21823;DHT22;11074;48.596;9.238;2023-12-20T15:13:08;6.00;99.90
21823;DHT22;11074;48.596;9.238;2023-12-20T15:15:33;6.00;99.90
21823;DHT22;11074;48.596;9.238;2023-12-20T15:18:02;6.00;99.90
21823;DHT22;11074;48.596;9.238;2023-12-20T15:20:30;5.90;99.90
21823;DHT22;11074;48.596;9.238;2023-12-20T15:22:58;5.90;99.90
21823;DHT22;11074;48.596;9.238;2023-12-20T15:25:30;5.90;99.90
21823;DHT22;11074;48.596;9.238;2023-12-20T15:27:55;6.00;99.90
21823;DHT22;11074;48.596;9.238;2023-12-20T15:30:21;6.00;99.90
21823;DHT22;11074;48.596;9.238;2023-12-20T15:32:49;5.90;99.90
21823;DHT22;11074;48.596;9.238;2023-12-20T15:35:15;5.90;99.90
21823;DHT22;11074;48.596;9.238;2023-12-20T15:37:41;6.00;99.90
21823;DHT22;11074;48.596;9.238;2023-12-20T15:40:10;5.90;99.90
21823;DHT22;11074;48.596;9.238;2023-12-20T15:42:37;5.90;99.90
21823;DHT22;11074;48.596;9.238;2023-12-20T15:45:06;5.80;99.90